Superfast Baleares — EBXD — position and weather

sailwx.info

Track history (hours):
 
Tides and Currents Weather Stations Pressure Air Temp Water Temp Dewpoint Dewpoint Depression Visibility Wind Speed Wind Dir Waves Ship Positions

Superfast Baleares

Last reported at 2014-Aug-27 18:31 UTC. Time now 2014-Aug-27 21:19 UTC.
Position N 39°27' W 000°19'.

Length 210 m; draft 6 m.

Type: Ship (hazmat cat A). MMSI: 225405000.

Date/timePositionNaut miles runAvg speedWind from/ knotsBaromVisibWave heightAir tempDewpointWater temp
2014-Aug-27 18:31N 39°27' W 000°19'0 0.1
2014-Aug-27 15:16N 39°27' W 000°19'0 0.0
2014-Aug-27 08:23N 39°27' W 000°19'0 0.0
2014-Aug-26 21:23N 39°27' W 000°19'0 0.1
2014-Aug-26 19:25N 39°27' W 000°19'0 0.1
2014-Aug-26 16:28N 39°27' W 000°19'0 0.2
2014-Aug-26 15:30N 39°27' W 000°19'0 0.1
2014-Aug-26 14:33N 39°27' W 000°19'0 0.5
2014-Aug-26 13:33N 39°28' W 000°19'1 0.4
2014-Aug-26 12:20N 39°27' W 000°19'1 0.8
2014-Aug-26 11:26N 39°28' W 000°20'1 0.7
2014-Aug-26 10:32N 39°28' W 000°19'1 0.3
2014-Aug-26 08:28N 39°28' W 000°19'0 0.4
2014-Aug-26 07:30N 39°27' W 000°19'0 0.3
2014-Aug-26 06:18N 39°27' W 000°19'0 0.3
2014-Aug-26 05:24N 39°27' W 000°18'0 0.4
2014-Aug-26 04:22N 39°27' W 000°19'0 0.2
2014-Aug-26 03:10N 39°27' W 000°19'0 0.3
2014-Aug-26 02:29N 39°27' W 000°19'0 0.2
2014-Aug-26 01:14N 39°27' W 000°19'0 0.1
2014-Aug-25 23:33N 39°27' W 000°19'0 0.4
2014-Aug-25 22:26N 39°28' W 000°19'0 0.1
2014-Aug-25 20:11N 39°28' W 000°19'0 0.4
2014-Aug-25 19:30N 39°28' W 000°19'0 0.3
2014-Aug-25 18:27N 39°27' W 000°19'0 0.1
2014-Aug-25 17:29N 39°27' W 000°19'0 0.1
2014-Aug-25 15:16N 39°27' W 000°19'0 0.3
2014-Aug-25 14:27N 39°27' W 000°19'0 0.3
2014-Aug-25 13:16N 39°28' W 000°19'1 1.0
2014-Aug-25 12:31N 39°27' W 000°19'1 0.9
2014-Aug-25 11:18N 39°28' W 000°20'1 0.9
2014-Aug-25 10:33N 39°28' W 000°19'1 0.5
2014-Aug-25 09:26N 39°27' W 000°19'0 0.2
2014-Aug-25 08:33N 39°28' W 000°19'0 0.3
2014-Aug-25 07:18N 39°27' W 000°19'0 0.3
2014-Aug-25 06:29N 39°27' W 000°19'0 0.3
2014-Aug-25 05:24N 39°27' W 000°19'0 0.1
2014-Aug-25 04:26N 39°27' W 000°19'0 0.2
2014-Aug-25 03:32N 39°27' W 000°19'0 0.2
2014-Aug-25 02:29N 39°27' W 000°19'0 0.4
2014-Aug-25 01:28N 39°27' W 000°19'0 0.1
2014-Aug-25 00:24N 39°27' W 000°19'0 0.3
2014-Aug-24 23:24N 39°27' W 000°19'0 0.1
2014-Aug-24 22:21N 39°27' W 000°19'0 0.3
2014-Aug-24 21:29N 39°27' W 000°19'0 0.1
2014-Aug-24 20:33N 39°27' W 000°19'0 0.4
2014-Aug-24 19:31N 39°28' W 000°19'0 0.3
2014-Aug-24 18:29N 39°27' W 000°19'0 0.1
2014-Aug-24 14:21N 39°28' W 000°19'0 0.2
2014-Aug-24 13:29N 39°28' W 000°19'1 0.7
2014-Aug-24 12:26N 39°27' W 000°19'0 0.5
2014-Aug-24 11:33N 39°27' W 000°19'0 0.0
2014-Aug-24 10:33N 39°27' W 000°19'0 0.0
2014-Aug-24 09:21N 39°27' W 000°19'0 0.0
2014-Aug-24 08:27N 39°27' W 000°19'0 0.0
2014-Aug-24 07:27N 39°27' W 000°19'0 0.0
2014-Aug-24 06:33N 39°27' W 000°19'0 0.0
2014-Aug-24 05:33N 39°27' W 000°19'0 0.0
2014-Aug-24 04:33N 39°27' W 000°19'0 0.0
2014-Aug-24 03:33N 39°27' W 000°19'0 0.0
2014-Aug-24 02:21N 39°27' W 000°19'78 3.1
2014-Aug-23 01:13N 39°13' E 001°20'1117.0
2014-Aug-23 00:33N 39°09' E 001°34'1313.1
2014-Aug-22 23:33N 38°56' E 001°34'6 1.1
2014-Aug-22 18:27N 38°54' E 001°27'0 0.0
2014-Aug-22 17:33N 38°54' E 001°27'1110.2
2014-Aug-22 16:31N 38°58' E 001°40'2020.5
2014-Aug-22 15:33N 39°10' E 001°60'2120.5
2014-Aug-22 14:33N 39°21' E 002°22'1717.3
2014-Aug-22 13:33N 39°33' E 002°38'0 0.2
2014-Aug-22 12:33N 39°34' E 002°38'0 0.0
2014-Aug-22 11:34N 39°34' E 002°38'0 0.0
2014-Aug-22 10:34N 39°34' E 002°38'0 0.0
2014-Aug-22 09:33N 39°34' E 002°38'0 0.0
2014-Aug-22 08:33N 39°34' E 002°38'0 0.0
2014-Aug-22 07:33N 39°34' E 002°38'0 0.0
2014-Aug-22 06:33N 39°34' E 002°38'0 0.1
2014-Aug-22 05:33N 39°34' E 002°38'9 9.2
2014-Aug-22 04:34N 39°26' E 002°32'1615.0
2014-Aug-22 03:31N 39°35' E 002°15'1616.5
2014-Aug-22 02:33N 39°51' E 002°15'1716.6
2014-Aug-22 01:33N 40°07' E 002°15'1716.7
2014-Aug-22 00:33N 40°24' E 002°14'1616.3
2014-Aug-21 23:33N 40°40' E 002°14'1312.7
2014-Aug-21 22:33N 40°53' E 002°13'1110.4
2014-Aug-21 21:33N 41°04' E 002°13'7 0.6
2014-Aug-21 09:33N 40°58' E 002°08'1615.9
2014-Aug-21 08:33N 40°42' E 002°04'1616.4
2014-Aug-21 07:33N 40°26' E 002°00'1616.1
2014-Aug-21 06:33N 40°11' E 001°56'1413.7
2014-Aug-21 05:33N 39°57' E 001°54'1010.4
2014-Aug-21 04:33N 39°47' E 001°52'1111.3
2014-Aug-21 03:33N 39°35' E 001°50'1111.4
2014-Aug-21 02:33N 39°24' E 001°46'1111.3
2014-Aug-21 01:33N 39°13' E 001°45'1111.0
2014-Aug-21 00:33N 39°02' E 001°42'1010.5
2014-Aug-20 23:33N 38°55' E 001°32'4 1.3
2014-Aug-20 20:32N 38°54' E 001°27'0 0.0
2014-Aug-20 17:26N 38°54' E 001°27'7 8.1
2014-Aug-20 16:33N 38°57' E 001°35'1514.9
2014-Aug-20 15:34N 39°06' E 001°51'1514.7
2014-Aug-20 14:33N 39°15' E 002°06'1414.3
2014-Aug-20 13:33N 39°21' E 002°23'1414.4
2014-Aug-20 12:34N 39°30' E 002°36'4 3.6
2014-Aug-20 11:33N 39°34' E 002°38'0 0.0
2014-Aug-20 10:33N 39°34' E 002°38'0 0.0
2014-Aug-20 09:33N 39°34' E 002°38'0 0.0
2014-Aug-20 08:33N 39°34' E 002°38'0 0.0
2014-Aug-20 07:33N 39°34' E 002°38'0 0.0
2014-Aug-20 06:33N 39°34' E 002°38'0 0.2
2014-Aug-20 05:33N 39°34' E 002°38'1010.1
2014-Aug-20 04:33N 39°25' E 002°30'1616.4
2014-Aug-20 03:33N 39°25' E 002°09'1616.4
2014-Aug-20 02:33N 39°26' E 001°48'1616.1
2014-Aug-20 01:33N 39°26' E 001°27'82 5.5
2014-Aug-19 10:33N 39°27' W 000°19'0 0.0
2014-Aug-19 09:33N 39°27' W 000°19'0 0.0
2014-Aug-19 08:33N 39°27' W 000°19'0 0.0
2014-Aug-19 07:33N 39°27' W 000°19'0 0.0
2014-Aug-19 06:34N 39°27' W 000°19'1 0.7
2014-Aug-19 05:33N 39°27' W 000°19'4514.5
2014-Aug-19 02:28N 39°26' E 000°39'3313.7
2014-Aug-19 00:04N 39°26' E 001°22'610.9
2014-Aug-18 23:33N 39°25' E 001°29'1111.0
2014-Aug-18 22:33N 39°26' E 001°43'1111.0
2014-Aug-18 21:33N 39°26' E 001°57'1211.6
2014-Aug-18 20:33N 39°26' E 002°12'1110.7
2014-Aug-18 19:33N 39°26' E 002°26'10 9.6
2014-Aug-18 18:33N 39°31' E 002°36'3 3.0
2014-Aug-18 17:33N 39°34' E 002°38'0 0.0
2014-Aug-18 16:32N 39°34' E 002°38'0 0.0
2014-Aug-18 15:32N 39°34' E 002°38'0 0.0
2014-Aug-18 14:32N 39°34' E 002°38'0 0.0
2014-Aug-18 13:32N 39°34' E 002°38'0 0.0
2014-Aug-18 12:32N 39°34' E 002°38'0 0.0
2014-Aug-18 11:32N 39°34' E 002°38'0 0.0
2014-Aug-18 10:32N 39°34' E 002°38'0 0.0
2014-Aug-18 09:29N 39°34' E 002°38'0 0.0
2014-Aug-18 08:32N 39°34' E 002°38'0 0.0
2014-Aug-18 07:32N 39°34' E 002°38'0 0.0
2014-Aug-18 06:32N 39°34' E 002°38'0 0.0
2014-Aug-18 05:32N 39°34' E 002°38'0 0.0
2014-Aug-18 04:32N 39°34' E 002°38'0 0.0
2014-Aug-18 03:32N 39°34' E 002°38'0 0.0
2014-Aug-18 02:32N 39°34' E 002°38'0 0.0
2014-Aug-18 01:32N 39°34' E 002°38'0 0.0
2014-Aug-18 00:29N 39°34' E 002°38'0 0.0
2014-Aug-17 18:32N 39°34' E 002°38'  
Track history (hours):
 
Tides and Currents Weather Stations Pressure Air Temp Water Temp Dewpoint Dewpoint Depression Visibility Wind Speed Wind Dir Waves Ship Positions

Superfast Baleares

Last reported at 2014-Aug-27 18:31 UTC. Time now 2014-Aug-27 21:19 UTC.
Position N 39°27' W 000°19'.

Length 210 m; draft 6 m.

Type: Ship (hazmat cat A). MMSI: 225405000.

Date/timePositionNaut miles runAvg speedWind from/ knotsBaromVisibWave heightAir tempDewpointWater temp
2014-Aug-27 18:31N 39°27' W 000°19'0 0.1
2014-Aug-27 15:16N 39°27' W 000°19'0 0.0
2014-Aug-27 08:23N 39°27' W 000°19'0 0.0
2014-Aug-26 21:23N 39°27' W 000°19'0 0.1
2014-Aug-26 19:25N 39°27' W 000°19'0 0.1
2014-Aug-26 16:28N 39°27' W 000°19'0 0.2
2014-Aug-26 15:30N 39°27' W 000°19'0 0.1
2014-Aug-26 14:33N 39°27' W 000°19'0 0.5
2014-Aug-26 13:33N 39°28' W 000°19'1 0.4
2014-Aug-26 12:20N 39°27' W 000°19'1 0.8
2014-Aug-26 11:26N 39°28' W 000°20'1 0.7
2014-Aug-26 10:32N 39°28' W 000°19'1 0.3
2014-Aug-26 08:28N 39°28' W 000°19'0 0.4
2014-Aug-26 07:30N 39°27' W 000°19'0 0.3
2014-Aug-26 06:18N 39°27' W 000°19'0 0.3
2014-Aug-26 05:24N 39°27' W 000°18'0 0.4
2014-Aug-26 04:22N 39°27' W 000°19'0 0.2
2014-Aug-26 03:10N 39°27' W 000°19'0 0.3
2014-Aug-26 02:29N 39°27' W 000°19'0 0.2
2014-Aug-26 01:14N 39°27' W 000°19'0 0.1
2014-Aug-25 23:33N 39°27' W 000°19'0 0.4
2014-Aug-25 22:26N 39°28' W 000°19'0 0.1
2014-Aug-25 20:11N 39°28' W 000°19'0 0.4
2014-Aug-25 19:30N 39°28' W 000°19'0 0.3
2014-Aug-25 18:27N 39°27' W 000°19'0 0.1
2014-Aug-25 17:29N 39°27' W 000°19'0 0.1
2014-Aug-25 15:16N 39°27' W 000°19'0 0.3
2014-Aug-25 14:27N 39°27' W 000°19'0 0.3
2014-Aug-25 13:16N 39°28' W 000°19'1 1.0
2014-Aug-25 12:31N 39°27' W 000°19'1 0.9
2014-Aug-25 11:18N 39°28' W 000°20'1 0.9
2014-Aug-25 10:33N 39°28' W 000°19'1 0.5
2014-Aug-25 09:26N 39°27' W 000°19'0 0.2
2014-Aug-25 08:33N 39°28' W 000°19'0 0.3
2014-Aug-25 07:18N 39°27' W 000°19'0 0.3
2014-Aug-25 06:29N 39°27' W 000°19'0 0.3
2014-Aug-25 05:24N 39°27' W 000°19'0 0.1
2014-Aug-25 04:26N 39°27' W 000°19'0 0.2
2014-Aug-25 03:32N 39°27' W 000°19'0 0.2
2014-Aug-25 02:29N 39°27' W 000°19'0 0.4
2014-Aug-25 01:28N 39°27' W 000°19'0 0.1
2014-Aug-25 00:24N 39°27' W 000°19'0 0.3
2014-Aug-24 23:24N 39°27' W 000°19'0 0.1
2014-Aug-24 22:21N 39°27' W 000°19'0 0.3
2014-Aug-24 21:29N 39°27' W 000°19'0 0.1
2014-Aug-24 20:33N 39°27' W 000°19'0 0.4
2014-Aug-24 19:31N 39°28' W 000°19'0 0.3
2014-Aug-24 18:29N 39°27' W 000°19'0 0.1
2014-Aug-24 14:21N 39°28' W 000°19'0 0.2
2014-Aug-24 13:29N 39°28' W 000°19'1 0.7
2014-Aug-24 12:26N 39°27' W 000°19'0 0.5
2014-Aug-24 11:33N 39°27' W 000°19'0 0.0
2014-Aug-24 10:33N 39°27' W 000°19'0 0.0
2014-Aug-24 09:21N 39°27' W 000°19'0 0.0
2014-Aug-24 08:27N 39°27' W 000°19'0 0.0
2014-Aug-24 07:27N 39°27' W 000°19'0 0.0
2014-Aug-24 06:33N 39°27' W 000°19'0 0.0
2014-Aug-24 05:33N 39°27' W 000°19'0 0.0
2014-Aug-24 04:33N 39°27' W 000°19'0 0.0
2014-Aug-24 03:33N 39°27' W 000°19'0 0.0
2014-Aug-24 02:21N 39°27' W 000°19'78 3.1
2014-Aug-23 01:13N 39°13' E 001°20'1117.0
2014-Aug-23 00:33N 39°09' E 001°34'1313.1
2014-Aug-22 23:33N 38°56' E 001°34'6 1.1
2014-Aug-22 18:27N 38°54' E 001°27'0 0.0
2014-Aug-22 17:33N 38°54' E 001°27'1110.2
2014-Aug-22 16:31N 38°58' E 001°40'2020.5
2014-Aug-22 15:33N 39°10' E 001°60'2120.5
2014-Aug-22 14:33N 39°21' E 002°22'1717.3
2014-Aug-22 13:33N 39°33' E 002°38'0 0.2
2014-Aug-22 12:33N 39°34' E 002°38'0 0.0
2014-Aug-22 11:34N 39°34' E 002°38'0 0.0
2014-Aug-22 10:34N 39°34' E 002°38'0 0.0
2014-Aug-22 09:33N 39°34' E 002°38'0 0.0
2014-Aug-22 08:33N 39°34' E 002°38'0 0.0
2014-Aug-22 07:33N 39°34' E 002°38'0 0.0
2014-Aug-22 06:33N 39°34' E 002°38'0 0.1
2014-Aug-22 05:33N 39°34' E 002°38'9 9.2
2014-Aug-22 04:34N 39°26' E 002°32'1615.0
2014-Aug-22 03:31N 39°35' E 002°15'1616.5
2014-Aug-22 02:33N 39°51' E 002°15'1716.6
2014-Aug-22 01:33N 40°07' E 002°15'1716.7
2014-Aug-22 00:33N 40°24' E 002°14'1616.3
2014-Aug-21 23:33N 40°40' E 002°14'1312.7
2014-Aug-21 22:33N 40°53' E 002°13'1110.4
2014-Aug-21 21:33N 41°04' E 002°13'7 0.6
2014-Aug-21 09:33N 40°58' E 002°08'1615.9
2014-Aug-21 08:33N 40°42' E 002°04'1616.4
2014-Aug-21 07:33N 40°26' E 002°00'1616.1
2014-Aug-21 06:33N 40°11' E 001°56'1413.7
2014-Aug-21 05:33N 39°57' E 001°54'1010.4
2014-Aug-21 04:33N 39°47' E 001°52'1111.3
2014-Aug-21 03:33N 39°35' E 001°50'1111.4
2014-Aug-21 02:33N 39°24' E 001°46'1111.3
2014-Aug-21 01:33N 39°13' E 001°45'1111.0
2014-Aug-21 00:33N 39°02' E 001°42'1010.5
2014-Aug-20 23:33N 38°55' E 001°32'4 1.3
2014-Aug-20 20:32N 38°54' E 001°27'0 0.0
2014-Aug-20 17:26N 38°54' E 001°27'7 8.1
2014-Aug-20 16:33N 38°57' E 001°35'1514.9
2014-Aug-20 15:34N 39°06' E 001°51'1514.7
2014-Aug-20 14:33N 39°15' E 002°06'1414.3
2014-Aug-20 13:33N 39°21' E 002°23'1414.4
2014-Aug-20 12:34N 39°30' E 002°36'4 3.6
2014-Aug-20 11:33N 39°34' E 002°38'0 0.0
2014-Aug-20 10:33N 39°34' E 002°38'0 0.0
2014-Aug-20 09:33N 39°34' E 002°38'0 0.0
2014-Aug-20 08:33N 39°34' E 002°38'0 0.0
2014-Aug-20 07:33N 39°34' E 002°38'0 0.0
2014-Aug-20 06:33N 39°34' E 002°38'0 0.2
2014-Aug-20 05:33N 39°34' E 002°38'1010.1
2014-Aug-20 04:33N 39°25' E 002°30'1616.4
2014-Aug-20 03:33N 39°25' E 002°09'1616.4
2014-Aug-20 02:33N 39°26' E 001°48'1616.1
2014-Aug-20 01:33N 39°26' E 001°27'82 5.5
2014-Aug-19 10:33N 39°27' W 000°19'0 0.0
2014-Aug-19 09:33N 39°27' W 000°19'0 0.0
2014-Aug-19 08:33N 39°27' W 000°19'0 0.0
2014-Aug-19 07:33N 39°27' W 000°19'0 0.0
2014-Aug-19 06:34N 39°27' W 000°19'1 0.7
2014-Aug-19 05:33N 39°27' W 000°19'4514.5
2014-Aug-19 02:28N 39°26' E 000°39'3313.7
2014-Aug-19 00:04N 39°26' E 001°22'610.9
2014-Aug-18 23:33N 39°25' E 001°29'1111.0
2014-Aug-18 22:33N 39°26' E 001°43'1111.0
2014-Aug-18 21:33N 39°26' E 001°57'1211.6
2014-Aug-18 20:33N 39°26' E 002°12'1110.7
2014-Aug-18 19:33N 39°26' E 002°26'10 9.6
2014-Aug-18 18:33N 39°31' E 002°36'3 3.0
2014-Aug-18 17:33N 39°34' E 002°38'0 0.0
2014-Aug-18 16:32N 39°34' E 002°38'0 0.0
2014-Aug-18 15:32N 39°34' E 002°38'0 0.0
2014-Aug-18 14:32N 39°34' E 002°38'0 0.0
2014-Aug-18 13:32N 39°34' E 002°38'0 0.0
2014-Aug-18 12:32N 39°34' E 002°38'0 0.0
2014-Aug-18 11:32N 39°34' E 002°38'0 0.0
2014-Aug-18 10:32N 39°34' E 002°38'0 0.0
2014-Aug-18 09:29N 39°34' E 002°38'0 0.0
2014-Aug-18 08:32N 39°34' E 002°38'0 0.0
2014-Aug-18 07:32N 39°34' E 002°38'0 0.0
2014-Aug-18 06:32N 39°34' E 002°38'0 0.0
2014-Aug-18 05:32N 39°34' E 002°38'0 0.0
2014-Aug-18 04:32N 39°34' E 002°38'0 0.0
2014-Aug-18 03:32N 39°34' E 002°38'0 0.0
2014-Aug-18 02:32N 39°34' E 002°38'0 0.0
2014-Aug-18 01:32N 39°34' E 002°38'0 0.0
2014-Aug-18 00:29N 39°34' E 002°38'0 0.0
2014-Aug-17 18:32N 39°34' E 002°38'  

Dump ship's entire track history